sensor_id;sensor_type;location;lat;lon;timestamp;P1;durP1;ratioP1;P2;durP2;ratioP2
10094;SDS011;5086;50.830;7.102;2023-04-09T00:01:20;30.10;;;13.50;;
10094;SDS011;5086;50.830;7.102;2023-04-09T00:03:47;29.00;;;12.50;;
10094;SDS011;5086;50.830;7.102;2023-04-09T00:06:13;30.30;;;14.70;;
10094;SDS011;5086;50.830;7.102;2023-04-09T00:08:42;32.65;;;15.90;;
10094;SDS011;5086;50.830;7.102;2023-04-09T00:11:09;37.90;;;16.40;;
10094;SDS011;5086;50.830;7.102;2023-04-09T00:13:36;39.50;;;16.35;;
10094;SDS011;5086;50.830;7.102;2023-04-09T00:16:03;32.83;;;14.85;;
10094;SDS011;5086;50.830;7.102;2023-04-09T00:18:30;31.10;;;15.52;;
10094;SDS011;5086;50.830;7.102;2023-04-09T00:20:57;38.28;;;16.15;;
10094;SDS011;5086;50.830;7.102;2023-04-09T00:23:24;34.85;;;13.68;;
10094;SDS011;5086;50.830;7.102;2023-04-09T00:25:52;30.95;;;14.48;;
10094;SDS011;5086;50.830;7.102;2023-04-09T00:28:19;50.13;;;15.57;;
10094;SDS011;5086;50.830;7.102;2023-04-09T00:30:46;29.15;;;13.57;;
10094;SDS011;5086;50.830;7.102;2023-04-09T00:33:13;35.05;;;15.02;;
10094;SDS011;5086;50.830;7.102;2023-04-09T00:35:40;26.70;;;13.45;;
10094;SDS011;5086;50.830;7.102;2023-04-09T00:38:07;28.00;;;13.02;;
10094;SDS011;5086;50.830;7.102;2023-04-09T00:40:33;32.15;;;14.27;;
10094;SDS011;5086;50.830;7.102;2023-04-09T00:43:02;27.65;;;13.30;;
10094;SDS011;5086;50.830;7.102;2023-04-09T00:45:29;26.95;;;13.68;;
10094;SDS011;5086;50.830;7.102;2023-04-09T00:47:55;23.35;;;12.30;;
10094;SDS011;5086;50.830;7.102;2023-04-09T00:50:22;36.72;;;15.15;;
10094;SDS011;5086;50.830;7.102;2023-04-09T00:52:50;32.00;;;13.65;;
10094;SDS011;5086;50.830;7.102;2023-04-09T00:55:17;26.77;;;12.90;;
10094;SDS011;5086;50.830;7.102;2023-04-09T00:57:46;41.13;;;13.45;;
10094;SDS011;5086;50.830;7.102;2023-04-09T01:00:15;30.92;;;12.60;;
10094;SDS011;5086;50.830;7.102;2023-04-09T01:02:42;29.65;;;12.55;;
10094;SDS011;5086;50.830;7.102;2023-04-09T01:05:10;26.40;;;11.50;;
10094;SDS011;5086;50.830;7.102;2023-04-09T01:07:41;25.90;;;11.93;;
10094;SDS011;5086;50.830;7.102;2023-04-09T01:10:20;32.80;;;13.30;;
10094;SDS011;5086;50.830;7.102;2023-04-09T01:12:57;26.38;;;11.48;;
10094;SDS011;5086;50.830;7.102;2023-04-09T01:15:35;20.52;;;10.43;;
10094;SDS011;5086;50.830;7.102;2023-04-09T01:18:06;22.75;;;11.02;;
10094;SDS011;5086;50.830;7.102;2023-04-09T01:20:38;28.50;;;11.07;;
10094;SDS011;5086;50.830;7.102;2023-04-09T01:23:10;24.08;;;11.30;;
10094;SDS011;5086;50.830;7.102;2023-04-09T01:25:44;28.70;;;11.93;;
10094;SDS011;5086;50.830;7.102;2023-04-09T01:28:24;23.48;;;11.32;;
10094;SDS011;5086;50.830;7.102;2023-04-09T01:30:56;27.80;;;11.57;;
10094;SDS011;5086;50.830;7.102;2023-04-09T01:33:27;25.00;;;10.93;;
10094;SDS011;5086;50.830;7.102;2023-04-09T01:35:56;31.17;;;11.02;;
10094;SDS011;5086;50.830;7.102;2023-04-09T01:38:25;30.85;;;11.30;;
10094;SDS011;5086;50.830;7.102;2023-04-09T01:40:53;23.40;;;11.02;;
10094;SDS011;5086;50.830;7.102;2023-04-09T01:43:23;28.15;;;11.57;;
10094;SDS011;5086;50.830;7.102;2023-04-09T01:45:52;23.35;;;10.82;;
10094;SDS011;5086;50.830;7.102;2023-04-09T01:48:20;23.73;;;10.85;;
10094;SDS011;5086;50.830;7.102;2023-04-09T01:50:48;23.60;;;10.13;;
10094;SDS011;5086;50.830;7.102;2023-04-09T01:53:16;22.80;;;10.60;;
10094;SDS011;5086;50.830;7.102;2023-04-09T01:55:43;21.60;;;10.27;;
10094;SDS011;5086;50.830;7.102;2023-04-09T01:58:10;20.40;;;10.15;;
10094;SDS011;5086;50.830;7.102;2023-04-09T02:00:39;32.15;;;12.77;;
10094;SDS011;5086;50.830;7.102;2023-04-09T02:03:12;30.88;;;11.60;;
10094;SDS011;5086;50.830;7.102;2023-04-09T02:05:43;25.13;;;11.60;;
10094;SDS011;5086;50.830;7.102;2023-04-09T02:08:17;24.30;;;11.65;;
10094;SDS011;5086;50.830;7.102;2023-04-09T02:10:48;27.23;;;11.60;;
10094;SDS011;5086;50.830;7.102;2023-04-09T02:13:17;25.67;;;12.93;;
10094;SDS011;5086;50.830;7.102;2023-04-09T02:15:47;24.77;;;12.00;;
10094;SDS011;5086;50.830;7.102;2023-04-09T02:18:22;24.50;;;10.95;;
10094;SDS011;5086;50.830;7.102;2023-04-09T02:20:50;24.92;;;11.70;;
10094;SDS011;5086;50.830;7.102;2023-04-09T02:23:17;22.35;;;9.77;;
10094;SDS011;5086;50.830;7.102;2023-04-09T02:25:44;30.73;;;9.90;;
10094;SDS011;5086;50.830;7.102;2023-04-09T02:28:11;20.30;;;9.60;;
10094;SDS011;5086;50.830;7.102;2023-04-09T02:30:38;21.20;;;9.68;;
10094;SDS011;5086;50.830;7.102;2023-04-09T02:33:07;22.17;;;9.88;;
10094;SDS011;5086;50.830;7.102;2023-04-09T02:35:34;25.42;;;11.88;;
10094;SDS011;5086;50.830;7.102;2023-04-09T02:38:01;24.33;;;10.88;;
10094;SDS011;5086;50.830;7.102;2023-04-09T02:40:28;24.67;;;10.50;;
10094;SDS011;5086;50.830;7.102;2023-04-09T02:42:56;25.63;;;11.23;;
10094;SDS011;5086;50.830;7.102;2023-04-09T02:45:23;21.88;;;9.27;;
10094;SDS011;5086;50.830;7.102;2023-04-09T02:47:50;23.08;;;9.50;;
10094;SDS011;5086;50.830;7.102;2023-04-09T02:50:19;17.92;;;8.80;;
10094;SDS011;5086;50.830;7.102;2023-04-09T02:52:46;24.08;;;10.65;;
10094;SDS011;5086;50.830;7.102;2023-04-09T02:55:13;21.35;;;10.10;;
10094;SDS011;5086;50.830;7.102;2023-04-09T02:57:40;22.10;;;10.13;;
10094;SDS011;5086;50.830;7.102;2023-04-09T03:00:07;23.05;;;9.93;;
10094;SDS011;5086;50.830;7.102;2023-04-09T03:02:35;18.23;;;9.57;;
10094;SDS011;5086;50.830;7.102;2023-04-09T03:05:02;21.75;;;9.77;;
10094;SDS011;5086;50.830;7.102;2023-04-09T03:07:32;21.55;;;8.98;;
10094;SDS011;5086;50.830;7.102;2023-04-09T03:09:58;26.58;;;9.52;;
10094;SDS011;5086;50.830;7.102;2023-04-09T03:12:25;17.83;;;9.55;;
10094;SDS011;5086;50.830;7.102;2023-04-09T03:14:52;21.70;;;9.93;;
10094;SDS011;5086;50.830;7.102;2023-04-09T03:17:19;20.88;;;9.27;;
10094;SDS011;5086;50.830;7.102;2023-04-09T03:19:49;19.23;;;9.82;;
10094;SDS011;5086;50.830;7.102;2023-04-09T03:22:16;20.80;;;9.38;;
10094;SDS011;5086;50.830;7.102;2023-04-09T03:24:44;16.02;;;8.30;;
10094;SDS011;5086;50.830;7.102;2023-04-09T03:27:11;25.95;;;9.18;;
10094;SDS011;5086;50.830;7.102;2023-04-09T03:29:38;20.38;;;8.85;;
10094;SDS011;5086;50.830;7.102;2023-04-09T03:32:05;21.63;;;8.80;;
10094;SDS011;5086;50.830;7.102;2023-04-09T03:34:32;20.25;;;9.75;;
10094;SDS011;5086;50.830;7.102;2023-04-09T03:36:59;20.52;;;9.52;;
10094;SDS011;5086;50.830;7.102;2023-04-09T03:39:26;20.48;;;9.48;;
10094;SDS011;5086;50.830;7.102;2023-04-09T03:41:56;28.30;;;9.25;;
10094;SDS011;5086;50.830;7.102;2023-04-09T03:44:23;26.33;;;10.27;;
10094;SDS011;5086;50.830;7.102;2023-04-09T03:46:50;19.38;;;8.50;;
10094;SDS011;5086;50.830;7.102;2023-04-09T03:49:17;17.60;;;8.68;;
10094;SDS011;5086;50.830;7.102;2023-04-09T03:51:44;27.83;;;10.23;;
10094;SDS011;5086;50.830;7.102;2023-04-09T03:54:11;18.23;;;10.02;;
10094;SDS011;5086;50.830;7.102;2023-04-09T03:56:38;21.85;;;9.00;;
10094;SDS011;5086;50.830;7.102;2023-04-09T03:59:06;21.17;;;9.52;;
10094;SDS011;5086;50.830;7.102;2023-04-09T04:01:33;19.58;;;8.88;;
10094;SDS011;5086;50.830;7.102;2023-04-09T04:04:00;21.38;;;8.68;;
10094;SDS011;5086;50.830;7.102;2023-04-09T04:06:27;17.88;;;8.57;;
10094;SDS011;5086;50.830;7.102;2023-04-09T04:08:55;15.35;;;7.50;;
10094;SDS011;5086;50.830;7.102;2023-04-09T04:11:22;17.08;;;7.22;;
10094;SDS011;5086;50.830;7.102;2023-04-09T04:13:49;13.45;;;6.30;;
10094;SDS011;5086;50.830;7.102;2023-04-09T04:16:17;17.75;;;8.23;;
10094;SDS011;5086;50.830;7.102;2023-04-09T04:18:44;17.48;;;8.20;;
10094;SDS011;5086;50.830;7.102;2023-04-09T04:21:11;12.18;;;6.05;;
10094;SDS011;5086;50.830;7.102;2023-04-09T04:23:38;13.82;;;7.03;;
10094;SDS011;5086;50.830;7.102;2023-04-09T04:26:06;15.02;;;6.72;;
10094;SDS011;5086;50.830;7.102;2023-04-09T04:28:35;18.83;;;7.47;;
10094;SDS011;5086;50.830;7.102;2023-04-09T04:31:02;14.70;;;7.13;;
10094;SDS011;5086;50.830;7.102;2023-04-09T04:33:34;21.15;;;7.85;;
10094;SDS011;5086;50.830;7.102;2023-04-09T04:36:05;17.80;;;7.97;;
10094;SDS011;5086;50.830;7.102;2023-04-09T04:38:32;16.83;;;7.90;;
10094;SDS011;5086;50.830;7.102;2023-04-09T04:40:59;16.35;;;7.32;;
10094;SDS011;5086;50.830;7.102;2023-04-09T04:43:26;14.27;;;6.57;;
10094;SDS011;5086;50.830;7.102;2023-04-09T04:45:53;16.60;;;7.40;;
10094;SDS011;5086;50.830;7.102;2023-04-09T04:48:20;17.55;;;8.57;;
10094;SDS011;5086;50.830;7.102;2023-04-09T04:50:55;19.33;;;7.18;;
10094;SDS011;5086;50.830;7.102;2023-04-09T04:53:22;13.55;;;6.75;;
10094;SDS011;5086;50.830;7.102;2023-04-09T04:55:49;15.65;;;7.10;;
10094;SDS011;5086;50.830;7.102;2023-04-09T04:58:16;21.17;;;8.38;;
10094;SDS011;5086;50.830;7.102;2023-04-09T05:00:43;13.98;;;7.18;;
10094;SDS011;5086;50.830;7.102;2023-04-09T05:03:11;17.23;;;7.15;;
10094;SDS011;5086;50.830;7.102;2023-04-09T05:05:38;17.75;;;8.07;;
10094;SDS011;5086;50.830;7.102;2023-04-09T05:08:06;18.40;;;8.40;;
10094;SDS011;5086;50.830;7.102;2023-04-09T05:10:33;15.85;;;8.10;;
10094;SDS011;5086;50.830;7.102;2023-04-09T05:13:00;17.42;;;7.90;;
10094;SDS011;5086;50.830;7.102;2023-04-09T05:15:27;19.20;;;9.00;;
10094;SDS011;5086;50.830;7.102;2023-04-09T05:17:54;27.40;;;9.50;;
10094;SDS011;5086;50.830;7.102;2023-04-09T05:20:22;19.20;;;9.25;;
10094;SDS011;5086;50.830;7.102;2023-04-09T05:22:48;16.35;;;7.43;;
10094;SDS011;5086;50.830;7.102;2023-04-09T05:25:17;15.82;;;7.65;;
10094;SDS011;5086;50.830;7.102;2023-04-09T05:27:44;19.42;;;9.00;;
10094;SDS011;5086;50.830;7.102;2023-04-09T05:30:11;17.67;;;8.13;;
10094;SDS011;5086;50.830;7.102;2023-04-09T05:32:38;20.08;;;8.77;;
10094;SDS011;5086;50.830;7.102;2023-04-09T05:35:05;20.75;;;8.35;;
10094;SDS011;5086;50.830;7.102;2023-04-09T05:37:33;19.80;;;8.95;;
10094;SDS011;5086;50.830;7.102;2023-04-09T05:40:00;21.52;;;9.15;;
10094;SDS011;5086;50.830;7.102;2023-04-09T05:42:28;19.25;;;8.25;;
10094;SDS011;5086;50.830;7.102;2023-04-09T05:44:55;16.15;;;8.57;;
10094;SDS011;5086;50.830;7.102;2023-04-09T05:47:22;22.17;;;8.38;;
10094;SDS011;5086;50.830;7.102;2023-04-09T05:49:49;41.45;;;9.88;;
10094;SDS011;5086;50.830;7.102;2023-04-09T05:52:16;17.50;;;8.15;;
10094;SDS011;5086;50.830;7.102;2023-04-09T05:54:43;14.05;;;6.57;;
10094;SDS011;5086;50.830;7.102;2023-04-09T05:57:10;14.65;;;6.13;;
10094;SDS011;5086;50.830;7.102;2023-04-09T05:59:39;14.57;;;6.20;;
10094;SDS011;5086;50.830;7.102;2023-04-09T06:02:07;13.07;;;6.35;;
10094;SDS011;5086;50.830;7.102;2023-04-09T06:04:34;14.98;;;6.65;;
10094;SDS011;5086;50.830;7.102;2023-04-09T06:07:03;17.90;;;6.45;;
10094;SDS011;5086;50.830;7.102;2023-04-09T06:09:55;13.68;;;5.57;;
10094;SDS011;5086;50.830;7.102;2023-04-09T06:12:33;11.80;;;5.00;;
10094;SDS011;5086;50.830;7.102;2023-04-09T06:18:04;15.48;;;6.20;;
10094;SDS011;5086;50.830;7.102;2023-04-09T06:20:34;13.55;;;5.90;;
10094;SDS011;5086;50.830;7.102;2023-04-09T06:23:14;12.20;;;5.47;;
10094;SDS011;5086;50.830;7.102;2023-04-09T06:25:56;10.70;;;5.80;;
10094;SDS011;5086;50.830;7.102;2023-04-09T06:28:27;13.40;;;5.50;;
10094;SDS011;5086;50.830;7.102;2023-04-09T06:30:55;14.43;;;5.60;;
10094;SDS011;5086;50.830;7.102;2023-04-09T06:33:24;11.07;;;5.07;;
10094;SDS011;5086;50.830;7.102;2023-04-09T06:35:52;14.60;;;5.80;;
10094;SDS011;5086;50.830;7.102;2023-04-09T06:38:19;15.93;;;6.18;;
10094;SDS011;5086;50.830;7.102;2023-04-09T06:41:03;12.90;;;5.47;;
10094;SDS011;5086;50.830;7.102;2023-04-09T06:43:54;10.65;;;5.03;;
10094;SDS011;5086;50.830;7.102;2023-04-09T06:47:06;9.93;;;5.38;;
10094;SDS011;5086;50.830;7.102;2023-04-09T06:50:10;12.52;;;5.60;;
10094;SDS011;5086;50.830;7.102;2023-04-09T06:55:36;15.45;;;5.47;;
10094;SDS011;5086;50.830;7.102;2023-04-09T06:58:19;12.10;;;6.20;;
10094;SDS011;5086;50.830;7.102;2023-04-09T07:00:54;13.68;;;5.75;;
10094;SDS011;5086;50.830;7.102;2023-04-09T07:03:22;12.50;;;6.28;;
10094;SDS011;5086;50.830;7.102;2023-04-09T07:12:05;12.70;;;5.85;;
10094;SDS011;5086;50.830;7.102;2023-04-09T07:14:33;10.63;;;5.45;;
10094;SDS011;5086;50.830;7.102;2023-04-09T07:17:03;10.48;;;5.07;;
10094;SDS011;5086;50.830;7.102;2023-04-09T07:19:32;11.38;;;5.25;;
10094;SDS011;5086;50.830;7.102;2023-04-09T07:22:18;11.98;;;5.07;;
10094;SDS011;5086;50.830;7.102;2023-04-09T07:24:48;11.40;;;5.25;;
10094;SDS011;5086;50.830;7.102;2023-04-09T07:30:03;9.27;;;5.40;;
10094;SDS011;5086;50.830;7.102;2023-04-09T07:32:31;12.73;;;5.15;;
10094;SDS011;5086;50.830;7.102;2023-04-09T07:38:14;10.45;;;5.30;;
10094;SDS011;5086;50.830;7.102;2023-04-09T07:40:54;11.75;;;6.07;;
10094;SDS011;5086;50.830;7.102;2023-04-09T07:59:44;11.55;;;5.22;;
10094;SDS011;5086;50.830;7.102;2023-04-09T08:02:22;16.85;;;6.82;;
10094;SDS011;5086;50.830;7.102;2023-04-09T08:08:25;13.40;;;5.22;;
10094;SDS011;5086;50.830;7.102;2023-04-09T08:11:34;11.70;;;4.75;;
10094;SDS011;5086;50.830;7.102;2023-04-09T08:23:45;9.77;;;5.40;;
10094;SDS011;5086;50.830;7.102;2023-04-09T08:26:48;12.38;;;5.93;;
10094;SDS011;5086;50.830;7.102;2023-04-09T08:29:50;10.05;;;5.00;;
10094;SDS011;5086;50.830;7.102;2023-04-09T08:32:30;11.40;;;5.63;;
10094;SDS011;5086;50.830;7.102;2023-04-09T08:44:29;9.32;;;4.75;;
10094;SDS011;5086;50.830;7.102;2023-04-09T08:47:30;5.55;;;3.10;;
10094;SDS011;5086;50.830;7.102;2023-04-09T08:50:32;9.77;;;4.40;;
10094;SDS011;5086;50.830;7.102;2023-04-09T08:53:20;8.05;;;3.85;;
10094;SDS011;5086;50.830;7.102;2023-04-09T09:05:49;8.15;;;3.63;;
10094;SDS011;5086;50.830;7.102;2023-04-09T09:12:29;6.80;;;3.38;;
10094;SDS011;5086;50.830;7.102;2023-04-09T09:15:26;8.52;;;3.80;;
10094;SDS011;5086;50.830;7.102;2023-04-09T09:37:41;9.10;;;4.65;;
10094;SDS011;5086;50.830;7.102;2023-04-09T09:40:09;12.05;;;4.70;;
10094;SDS011;5086;50.830;7.102;2023-04-09T09:43:11;8.82;;;4.07;;
10094;SDS011;5086;50.830;7.102;2023-04-09T09:49:32;10.20;;;4.95;;
10094;SDS011;5086;50.830;7.102;2023-04-09T09:52:33;9.77;;;4.75;;
10094;SDS011;5086;50.830;7.102;2023-04-09T09:59:00;10.63;;;4.97;;
10094;SDS011;5086;50.830;7.102;2023-04-09T10:01:32;11.75;;;5.78;;
10094;SDS011;5086;50.830;7.102;2023-04-09T10:04:28;12.77;;;5.18;;
10094;SDS011;5086;50.830;7.102;2023-04-09T10:37:27;11.23;;;4.45;;
10094;SDS011;5086;50.830;7.102;2023-04-09T10:40:33;8.68;;;4.40;;
10094;SDS011;5086;50.830;7.102;2023-04-09T10:44:04;10.15;;;4.43;;
10094;SDS011;5086;50.830;7.102;2023-04-09T10:47:02;8.77;;;4.57;;
10094;SDS011;5086;50.830;7.102;2023-04-09T10:49:36;11.73;;;5.15;;
10094;SDS011;5086;50.830;7.102;2023-04-09T10:52:04;11.20;;;4.65;;
10094;SDS011;5086;50.830;7.102;2023-04-09T10:54:41;8.25;;;4.13;;
10094;SDS011;5086;50.830;7.102;2023-04-09T10:57:12;7.53;;;4.25;;
10094;SDS011;5086;50.830;7.102;2023-04-09T10:59:42;7.53;;;4.13;;
10094;SDS011;5086;50.830;7.102;2023-04-09T11:02:19;10.68;;;4.10;;
10094;SDS011;5086;50.830;7.102;2023-04-09T11:05:31;11.38;;;5.25;;
10094;SDS011;5086;50.830;7.102;2023-04-09T11:08:03;9.90;;;5.05;;
10094;SDS011;5086;50.830;7.102;2023-04-09T11:10:41;17.75;;;7.40;;
10094;SDS011;5086;50.830;7.102;2023-04-09T11:13:13;15.80;;;5.35;;
10094;SDS011;5086;50.830;7.102;2023-04-09T11:15:55;10.55;;;4.55;;
10094;SDS011;5086;50.830;7.102;2023-04-09T11:18:31;10.95;;;4.60;;
10094;SDS011;5086;50.830;7.102;2023-04-09T11:21:02;8.75;;;4.85;;
10094;SDS011;5086;50.830;7.102;2023-04-09T11:23:29;9.48;;;5.03;;
10094;SDS011;5086;50.830;7.102;2023-04-09T11:25:57;7.78;;;4.32;;
10094;SDS011;5086;50.830;7.102;2023-04-09T11:28:25;10.05;;;4.55;;
10094;SDS011;5086;50.830;7.102;2023-04-09T11:30:52;7.95;;;3.78;;
10094;SDS011;5086;50.830;7.102;2023-04-09T11:33:19;6.85;;;3.53;;
10094;SDS011;5086;50.830;7.102;2023-04-09T11:35:46;7.38;;;4.03;;
10094;SDS011;5086;50.830;7.102;2023-04-09T11:38:15;9.95;;;4.68;;
10094;SDS011;5086;50.830;7.102;2023-04-09T11:40:43;8.10;;;4.15;;
10094;SDS011;5086;50.830;7.102;2023-04-09T11:43:12;8.13;;;4.25;;
10094;SDS011;5086;50.830;7.102;2023-04-09T11:45:40;7.72;;;4.30;;
10094;SDS011;5086;50.830;7.102;2023-04-09T11:48:08;7.13;;;4.25;;
10094;SDS011;5086;50.830;7.102;2023-04-09T11:50:35;6.78;;;3.92;;
10094;SDS011;5086;50.830;7.102;2023-04-09T11:53:14;9.05;;;4.50;;
10094;SDS011;5086;50.830;7.102;2023-04-09T11:55:45;8.18;;;3.80;;
10094;SDS011;5086;50.830;7.102;2023-04-09T11:58:13;9.77;;;4.35;;
10094;SDS011;5086;50.830;7.102;2023-04-09T12:00:40;10.00;;;4.35;;
10094;SDS011;5086;50.830;7.102;2023-04-09T12:03:08;6.68;;;3.92;;
10094;SDS011;5086;50.830;7.102;2023-04-09T12:05:35;7.03;;;3.65;;
10094;SDS011;5086;50.830;7.102;2023-04-09T12:08:02;8.68;;;4.22;;
10094;SDS011;5086;50.830;7.102;2023-04-09T12:10:35;8.30;;;3.97;;
10094;SDS011;5086;50.830;7.102;2023-04-09T12:13:04;7.97;;;4.20;;
10094;SDS011;5086;50.830;7.102;2023-04-09T12:15:32;6.30;;;3.78;;
10094;SDS011;5086;50.830;7.102;2023-04-09T12:18:00;7.60;;;3.83;;
10094;SDS011;5086;50.830;7.102;2023-04-09T12:20:28;5.07;;;3.22;;
10094;SDS011;5086;50.830;7.102;2023-04-09T12:22:56;7.22;;;3.83;;
10094;SDS011;5086;50.830;7.102;2023-04-09T12:25:24;10.45;;;4.40;;
10094;SDS011;5086;50.830;7.102;2023-04-09T12:27:52;7.63;;;4.22;;
10094;SDS011;5086;50.830;7.102;2023-04-09T12:30:20;8.40;;;4.32;;
10094;SDS011;5086;50.830;7.102;2023-04-09T12:32:47;6.32;;;3.70;;
10094;SDS011;5086;50.830;7.102;2023-04-09T12:35:14;11.80;;;4.80;;
10094;SDS011;5086;50.830;7.102;2023-04-09T12:37:41;7.90;;;3.50;;
10094;SDS011;5086;50.830;7.102;2023-04-09T12:40:09;9.98;;;4.90;;
10094;SDS011;5086;50.830;7.102;2023-04-09T12:42:37;6.80;;;4.03;;
10094;SDS011;5086;50.830;7.102;2023-04-09T12:45:07;8.02;;;3.95;;
10094;SDS011;5086;50.830;7.102;2023-04-09T12:47:35;6.38;;;4.07;;
10094;SDS011;5086;50.830;7.102;2023-04-09T12:50:03;9.02;;;4.57;;
10094;SDS011;5086;50.830;7.102;2023-04-09T12:52:31;4.97;;;3.38;;
10094;SDS011;5086;50.830;7.102;2023-04-09T12:54:59;9.45;;;3.92;;
10094;SDS011;5086;50.830;7.102;2023-04-09T12:57:26;7.97;;;4.20;;
10094;SDS011;5086;50.830;7.102;2023-04-09T12:59:53;6.18;;;3.70;;
10094;SDS011;5086;50.830;7.102;2023-04-09T13:02:21;7.40;;;4.10;;
10094;SDS011;5086;50.830;7.102;2023-04-09T13:04:49;6.75;;;3.55;;
10094;SDS011;5086;50.830;7.102;2023-04-09T13:07:16;9.57;;;4.25;;
10094;SDS011;5086;50.830;7.102;2023-04-09T13:09:43;4.38;;;3.55;;
10094;SDS011;5086;50.830;7.102;2023-04-09T13:12:12;6.55;;;3.40;;
10094;SDS011;5086;50.830;7.102;2023-04-09T13:14:39;6.68;;;3.60;;
10094;SDS011;5086;50.830;7.102;2023-04-09T13:17:07;7.00;;;4.15;;
10094;SDS011;5086;50.830;7.102;2023-04-09T13:19:35;7.95;;;4.13;;
10094;SDS011;5086;50.830;7.102;2023-04-09T13:22:02;6.53;;;3.40;;
10094;SDS011;5086;50.830;7.102;2023-04-09T13:24:31;10.77;;;4.30;;
10094;SDS011;5086;50.830;7.102;2023-04-09T13:26:58;7.75;;;4.25;;
10094;SDS011;5086;50.830;7.102;2023-04-09T13:29:25;6.50;;;3.58;;
10094;SDS011;5086;50.830;7.102;2023-04-09T13:31:53;13.07;;;4.80;;
10094;SDS011;5086;50.830;7.102;2023-04-09T13:34:20;9.93;;;4.18;;
10094;SDS011;5086;50.830;7.102;2023-04-09T13:36:49;6.53;;;4.32;;
10094;SDS011;5086;50.830;7.102;2023-04-09T13:39:16;7.65;;;3.75;;
10094;SDS011;5086;50.830;7.102;2023-04-09T13:41:43;7.07;;;4.00;;
10094;SDS011;5086;50.830;7.102;2023-04-09T13:44:10;6.90;;;3.78;;
10094;SDS011;5086;50.830;7.102;2023-04-09T13:46:37;7.95;;;4.18;;
10094;SDS011;5086;50.830;7.102;2023-04-09T13:49:03;5.82;;;3.35;;
10094;SDS011;5086;50.830;7.102;2023-04-09T13:51:30;8.32;;;4.18;;
10094;SDS011;5086;50.830;7.102;2023-04-09T13:54:00;8.13;;;4.22;;
10094;SDS011;5086;50.830;7.102;2023-04-09T13:56:26;5.35;;;3.38;;
10094;SDS011;5086;50.830;7.102;2023-04-09T13:58:53;7.15;;;3.92;;
10094;SDS011;5086;50.830;7.102;2023-04-09T14:01:20;6.38;;;3.55;;
10094;SDS011;5086;50.830;7.102;2023-04-09T14:03:48;7.88;;;3.97;;
10094;SDS011;5086;50.830;7.102;2023-04-09T14:06:14;7.07;;;4.07;;
10094;SDS011;5086;50.830;7.102;2023-04-09T14:08:41;5.65;;;3.72;;
10094;SDS011;5086;50.830;7.102;2023-04-09T14:11:10;5.72;;;3.88;;
10094;SDS011;5086;50.830;7.102;2023-04-09T14:13:39;7.05;;;3.60;;
10094;SDS011;5086;50.830;7.102;2023-04-09T14:16:06;7.57;;;3.60;;
10094;SDS011;5086;50.830;7.102;2023-04-09T14:18:35;6.70;;;4.35;;
10094;SDS011;5086;50.830;7.102;2023-04-09T14:21:03;7.75;;;4.50;;
10094;SDS011;5086;50.830;7.102;2023-04-09T14:23:30;5.90;;;3.55;;
10094;SDS011;5086;50.830;7.102;2023-04-09T14:25:57;6.80;;;3.75;;
10094;SDS011;5086;50.830;7.102;2023-04-09T14:28:25;5.30;;;3.45;;
10094;SDS011;5086;50.830;7.102;2023-04-09T14:30:52;9.02;;;4.05;;
10094;SDS011;5086;50.830;7.102;2023-04-09T14:33:19;5.95;;;3.85;;
10094;SDS011;5086;50.830;7.102;2023-04-09T14:35:46;11.52;;;3.58;;
10094;SDS011;5086;50.830;7.102;2023-04-09T14:38:12;6.32;;;3.22;;
10094;SDS011;5086;50.830;7.102;2023-04-09T14:40:40;5.45;;;3.08;;
10094;SDS011;5086;50.830;7.102;2023-04-09T14:43:07;6.10;;;3.30;;
10094;SDS011;5086;50.830;7.102;2023-04-09T14:45:35;6.85;;;3.75;;
10094;SDS011;5086;50.830;7.102;2023-04-09T14:48:02;6.43;;;3.70;;
10094;SDS011;5086;50.830;7.102;2023-04-09T14:50:29;5.38;;;3.60;;
10094;SDS011;5086;50.830;7.102;2023-04-09T14:52:57;5.15;;;3.70;;
10094;SDS011;5086;50.830;7.102;2023-04-09T14:55:24;5.63;;;3.50;;
10094;SDS011;5086;50.830;7.102;2023-04-09T14:57:52;6.97;;;3.35;;
10094;SDS011;5086;50.830;7.102;2023-04-09T15:00:28;14.18;;;3.42;;
10094;SDS011;5086;50.830;7.102;2023-04-09T15:02:57;4.30;;;2.90;;
10094;SDS011;5086;50.830;7.102;2023-04-09T15:05:24;4.40;;;3.22;;
10094;SDS011;5086;50.830;7.102;2023-04-09T15:07:51;5.60;;;3.95;;
10094;SDS011;5086;50.830;7.102;2023-04-09T15:10:18;4.57;;;3.00;;
10094;SDS011;5086;50.830;7.102;2023-04-09T15:12:45;6.47;;;3.63;;
10094;SDS011;5086;50.830;7.102;2023-04-09T15:15:11;5.55;;;2.95;;
10094;SDS011;5086;50.830;7.102;2023-04-09T15:17:38;7.13;;;3.17;;
10094;SDS011;5086;50.830;7.102;2023-04-09T15:20:07;5.68;;;3.30;;
10094;SDS011;5086;50.830;7.102;2023-04-09T15:22:34;4.60;;;2.80;;
10094;SDS011;5086;50.830;7.102;2023-04-09T15:25:01;4.75;;;2.58;;
10094;SDS011;5086;50.830;7.102;2023-04-09T15:27:28;5.28;;;2.90;;
10094;SDS011;5086;50.830;7.102;2023-04-09T15:29:55;5.03;;;3.15;;
10094;SDS011;5086;50.830;7.102;2023-04-09T15:32:22;3.00;;;2.67;;
10094;SDS011;5086;50.830;7.102;2023-04-09T15:34:48;4.75;;;2.50;;
10094;SDS011;5086;50.830;7.102;2023-04-09T15:37:17;3.42;;;2.53;;
10094;SDS011;5086;50.830;7.102;2023-04-09T15:39:43;6.20;;;3.80;;
10094;SDS011;5086;50.830;7.102;2023-04-09T15:42:10;5.10;;;2.97;;
10094;SDS011;5086;50.830;7.102;2023-04-09T15:44:37;5.68;;;3.22;;
10094;SDS011;5086;50.830;7.102;2023-04-09T15:47:04;6.30;;;3.78;;
10094;SDS011;5086;50.830;7.102;2023-04-09T15:49:33;7.20;;;3.50;;
10094;SDS011;5086;50.830;7.102;2023-04-09T15:52:00;9.27;;;3.55;;
10094;SDS011;5086;50.830;7.102;2023-04-09T15:54:29;7.88;;;3.70;;
10094;SDS011;5086;50.830;7.102;2023-04-09T15:56:55;6.38;;;3.42;;
10094;SDS011;5086;50.830;7.102;2023-04-09T15:59:22;7.10;;;3.53;;
10094;SDS011;5086;50.830;7.102;2023-04-09T16:01:50;4.55;;;2.78;;
10094;SDS011;5086;50.830;7.102;2023-04-09T16:04:18;9.18;;;4.20;;
10094;SDS011;5086;50.830;7.102;2023-04-09T16:06:48;5.63;;;3.05;;
10094;SDS011;5086;50.830;7.102;2023-04-09T16:09:14;4.43;;;2.90;;
10094;SDS011;5086;50.830;7.102;2023-04-09T16:11:43;4.35;;;2.72;;
10094;SDS011;5086;50.830;7.102;2023-04-09T16:14:10;6.15;;;2.50;;
10094;SDS011;5086;50.830;7.102;2023-04-09T16:16:37;5.05;;;3.35;;
10094;SDS011;5086;50.830;7.102;2023-04-09T16:19:04;5.30;;;3.42;;
10094;SDS011;5086;50.830;7.102;2023-04-09T16:21:31;5.03;;;2.65;;
10094;SDS011;5086;50.830;7.102;2023-04-09T16:23:58;4.80;;;3.03;;
10094;SDS011;5086;50.830;7.102;2023-04-09T16:26:25;5.22;;;3.53;;
10094;SDS011;5086;50.830;7.102;2023-04-09T16:28:53;4.70;;;2.67;;
10094;SDS011;5086;50.830;7.102;2023-04-09T16:31:23;5.78;;;3.08;;
10094;SDS011;5086;50.830;7.102;2023-04-09T16:33:51;5.82;;;3.45;;
10094;SDS011;5086;50.830;7.102;2023-04-09T16:36:18;4.97;;;3.40;;
10094;SDS011;5086;50.830;7.102;2023-04-09T16:38:45;6.03;;;3.50;;
10094;SDS011;5086;50.830;7.102;2023-04-09T16:41:12;5.63;;;3.22;;
10094;SDS011;5086;50.830;7.102;2023-04-09T16:43:38;5.20;;;3.17;;
10094;SDS011;5086;50.830;7.102;2023-04-09T16:46:07;5.68;;;3.42;;
10094;SDS011;5086;50.830;7.102;2023-04-09T16:48:34;5.38;;;3.20;;
10094;SDS011;5086;50.830;7.102;2023-04-09T16:51:05;6.85;;;3.50;;
10094;SDS011;5086;50.830;7.102;2023-04-09T16:53:32;5.60;;;3.30;;
10094;SDS011;5086;50.830;7.102;2023-04-09T16:56:00;6.60;;;3.90;;
10094;SDS011;5086;50.830;7.102;2023-04-09T16:58:26;5.18;;;3.40;;
10094;SDS011;5086;50.830;7.102;2023-04-09T17:00:53;6.40;;;3.35;;
10094;SDS011;5086;50.830;7.102;2023-04-09T17:03:22;5.68;;;2.90;;
10094;SDS011;5086;50.830;7.102;2023-04-09T17:05:49;4.40;;;2.60;;
10094;SDS011;5086;50.830;7.102;2023-04-09T17:08:16;5.55;;;3.33;;
10094;SDS011;5086;50.830;7.102;2023-04-09T17:10:48;4.07;;;2.83;;
10094;SDS011;5086;50.830;7.102;2023-04-09T17:13:18;5.13;;;2.72;;
10094;SDS011;5086;50.830;7.102;2023-04-09T17:22:48;7.20;;;3.30;;
10094;SDS011;5086;50.830;7.102;2023-04-09T17:25:35;7.03;;;3.10;;